Terminal Aerodrome Forecast
Issued by NWS Shreveport, LA

Home | Current Version | Previous Version | Text Only | Print | Product List | Glossary On
Versions: 1 2 3 4 5 6 7 8 9 10 11 12 13 14 15 16 17 18 19 20 21 22 23 24 25 26 27 28 29 30 31 32 33
113
FTUS44 KSHV 282006 AAB
TAFMLU
TAF AMD
KMLU 282006Z 2820/2918 24009KT P6SM VCTS SCT040CB OVC120
      TEMPO 2820/2821 4SM -TSRA BR SCT005 BKN014CB
     FM282100 26008KT 5SM -TSRA BR OVC035CB
     FM290200 VRB04KT P6SM SCT060 BKN150 BKN250
     FM290600 20002KT P6SM SCT060 BKN250
     FM291400 25009KT 6SM BR OVC050=

USA.gov is the U.S. government's official web portal to all federal, state and local government web resources and services.